Time;durP1;ratioP1;P1;durP2;ratioP2;P2;SDS_P1;SDS_P2;PMS_P1;PMS_P2;Temp;Humidity;BMP_temperature;BMP_pressure;BME280_temperature;BME280_humidity;BME280_pressure;Samples;Min_cycle;Max_cycle;Signal;HPM_P1;HPM_P2
2023/10/15 00:00:17;;;;;;;;;;;;;;;15.43;nan;101030.81;4974948;28;19949;-91
2023/10/15 00:02:44;;;;;;;;;;;;;;;15.40;nan;101042.16;4973630;28;20016;-88
2023/10/15 00:05:12;;;;;;;;;;;;;;;15.34;nan;101027.06;4973357;28;19926;-90
2023/10/15 00:07:40;;;;;;;;;;;;;;;15.36;nan;101045.69;4974899;28;19930;-88
2023/10/15 00:10:14;;;;;;;;;;;;;;;15.28;nan;101044.38;4974855;28;19968;-90
2023/10/15 00:12:43;;;;;;;;;;;;;;;15.29;nan;101047.88;4977316;28;19932;-91
2023/10/15 00:15:19;;;;;;;;;;;;;;;15.30;nan;101046.78;4969621;28;19933;-89
2023/10/15 00:17:48;;;;;;;;;;;;;;;15.31;nan;101054.63;4974619;28;19930;-90
2023/10/15 00:20:17;;;;;;;;;;;;;;;15.35;nan;101055.69;4970742;28;19922;-89
2023/10/15 00:22:44;;;;;;;;;;;;;;;15.36;nan;101051.09;4974464;28;20227;-90
2023/10/15 00:25:12;;;;;;;;;;;;;;;15.29;nan;101051.38;4972979;28;20442;-91
2023/10/15 00:27:41;;;;;;;;;;;;;;;15.26;nan;101046.53;4970582;28;19918;-91
2023/10/15 00:30:12;;;;;;;;;;;;;;;15.21;nan;101054.63;4974847;28;19925;-92
2023/10/15 00:32:40;;;;;;;;;;;;;;;15.20;nan;101058.38;4972901;28;19922;-90
2023/10/15 00:35:06;;;;;;;;;;;;;;;15.16;nan;101043.03;4972857;28;19934;-89
2023/10/15 00:37:34;;;;;;;;;;;;;;;15.15;nan;101044.91;4969543;28;19969;-93
2023/10/15 00:40:01;;;;;;;;;;;;;;;15.11;nan;101044.66;4972136;28;20386;-92
2023/10/15 00:42:30;;;;;;;;;;;;;;;15.10;nan;101050.31;4979066;28;19925;-88
2023/10/15 00:44:57;;;;;;;;;;;;;;;15.10;nan;101045.72;4974803;28;19918;-90
2023/10/15 00:47:22;;;;;;;;;;;;;;;15.06;nan;101057.31;4970562;28;19926;-89
2023/10/15 00:49:51;;;;;;;;;;;;;;;14.97;nan;101050.84;4972958;28;20445;-90
2023/10/15 00:52:19;;;;;;;;;;;;;;;14.97;nan;101043.56;4974922;28;19926;-91
2023/10/15 00:54:45;;;;;;;;;;;;;;;14.91;nan;101055.44;4973904;28;20410;-89
2023/10/15 00:57:26;;;;;;;;;;;;;;;14.90;nan;101047.59;4973159;28;19917;-90
2023/10/15 00:59:58;;;;;;;;;;;;;;;14.94;nan;101048.69;4972578;28;19926;-88
2023/10/15 01:02:29;;;;;;;;;;;;;;;14.96;nan;101062.72;4973986;28;19922;-89
2023/10/15 01:05:07;;;;;;;;;;;;;;;14.93;nan;101061.38;4973094;28;20012;-89
2023/10/15 01:07:55;;;;;;;;;;;;;;;14.96;nan;101063.53;4975564;28;19929;-90
2023/10/15 01:10:36;;;;;;;;;;;;;;;15.02;nan;101061.63;4969985;28;20378;-88
2023/10/15 01:13:21;;;;;;;;;;;;;;;15.02;nan;101067.84;4969165;28;19977;-88
2023/10/15 01:15:54;;;;;;;;;;;;;;;15.04;nan;101051.38;4970040;28;19929;-89
2023/10/15 01:18:19;;;;;;;;;;;;;;;15.04;nan;101057.59;4975235;28;19922;-89
2023/10/15 01:20:45;;;;;;;;;;;;;;;15.06;nan;101068.91;4970551;28;20008;-92
2023/10/15 01:26:23;;;;;;;;;;;;;;;15.09;nan;101073.81;4979387;28;19968;-90
2023/10/15 01:28:54;;;;;;;;;;;;;;;15.16;nan;101068.13;4972661;28;19954;-91
2023/10/15 01:31:24;;;;;;;;;;;;;;;15.18;nan;101065.94;4975505;28;19922;-89
2023/10/15 01:33:53;;;;;;;;;;;;;;;15.13;nan;101068.66;4972929;28;20177;-90
2023/10/15 01:36:28;;;;;;;;;;;;;;;15.10;nan;101067.31;4973387;28;19927;-91
2023/10/15 01:38:57;;;;;;;;;;;;;;;15.15;nan;101077.28;4972752;28;20972;-89
2023/10/15 01:41:25;;;;;;;;;;;;;;;15.07;nan;101058.94;4973489;28;20141;-91
2023/10/15 01:43:58;;;;;;;;;;;;;;;15.04;nan;101062.16;4970526;28;19964;-90
2023/10/15 01:49:16;;;;;;;;;;;;;;;14.93;nan;101060.56;4973858;28;20309;-89
2023/10/15 01:51:44;;;;;;;;;;;;;;;14.93;nan;101064.06;4975904;28;19926;-89
2023/10/15 01:54:13;;;;;;;;;;;;;;;14.96;nan;101060.03;4970961;28;19922;-90
2023/10/15 01:56:39;;;;;;;;;;;;;;;14.99;nan;101064.88;4972463;28;20405;-90
2023/10/15 01:59:08;;;;;;;;;;;;;;;15.01;nan;101057.31;4972916;28;19929;-91
2023/10/15 02:01:40;;;;;;;;;;;;;;;15.03;nan;101055.97;4972383;28;20438;-87
2023/10/15 02:04:06;;;;;;;;;;;;;;;15.04;nan;101056.78;4970884;28;20012;-90
2023/10/15 02:06:42;;;;;;;;;;;;;;;15.06;nan;101054.63;4970615;28;19918;-89
2023/10/15 02:09:11;;;;;;;;;;;;;;;15.07;nan;101057.03;4971077;28;19921;-91
2023/10/15 02:11:47;;;;;;;;;;;;;;;15.02;nan;101057.03;4971993;28;19926;-89
2023/10/15 02:14:21;;;;;;;;;;;;;;;14.97;nan;101053.53;4970715;28;19922;-91
2023/10/15 02:16:50;;;;;;;;;;;;;;;14.95;nan;101058.41;4972249;28;20362;-90
2023/10/15 02:19:34;;;;;;;;;;;;;;;14.95;nan;101050.31;4974412;28;19922;-89
2023/10/15 02:22:06;;;;;;;;;;;;;;;15.02;nan;101045.44;4971603;28;19926;-93
2023/10/15 02:24:34;;;;;;;;;;;;;;;15.01;nan;101051.94;4972474;28;19970;-89
2023/10/15 02:27:09;;;;;;;;;;;;;;;15.05;nan;101044.91;4973337;28;19929;-93
2023/10/15 02:29:37;;;;;;;;;;;;;;;15.04;nan;101048.69;4974182;28;19960;-91
2023/10/15 02:32:21;;;;;;;;;;;;;;;15.04;nan;101043.28;4971116;28;19933;-92
2023/10/15 02:34:57;;;;;;;;;;;;;;;15.01;nan;101054.63;4970415;28;19925;-90
2023/10/15 02:37:27;;;;;;;;;;;;;;;14.99;nan;101046.81;4971551;28;20372;-89
2023/10/15 02:39:56;;;;;;;;;;;;;;;14.99;nan;101046.00;4975802;28;19965;-92
2023/10/15 02:42:52;;;;;;;;;;;;;;;14.99;nan;101048.69;4975356;28;20444;-90
2023/10/15 02:45:14;;;;;;;;;;;;;;;14.99;nan;101048.69;4972412;28;19976;-93
2023/10/15 02:48:09;;;;;;;;;;;;;;;15.02;nan;101046.25;4970196;28;19933;-89
2023/10/15 02:50:33;;;;;;;;;;;;;;;15.00;nan;101051.13;4967552;28;19961;-91
2023/10/15 02:53:04;;;;;;;;;;;;;;;15.06;nan;101049.22;4970660;28;19923;-92
2023/10/15 02:55:47;;;;;;;;;;;;;;;15.04;nan;101048.69;4971201;28;19918;-91
2023/10/15 02:58:16;;;;;;;;;;;;;;;15.05;nan;101047.59;4973341;28;19922;-89
2023/10/15 03:00:43;;;;;;;;;;;;;;;15.00;nan;101053.00;4975900;28;19958;-93
2023/10/15 03:03:09;;;;;;;;;;;;;;;14.94;nan;101062.19;4973369;28;19922;-90
2023/10/15 03:05:39;;;;;;;;;;;;;;;14.90;nan;101059.22;4969413;28;19985;-90
2023/10/15 03:08:06;;;;;;;;;;;;;;;14.86;nan;101057.31;4972333;28;21477;-93
2023/10/15 03:10:55;;;;;;;;;;;;;;;14.82;nan;101063.25;4974105;28;20461;-93
2023/10/15 03:13:26;;;;;;;;;;;;;;;14.83;nan;101061.34;4971823;28;19926;-91
2023/10/15 03:15:52;;;;;;;;;;;;;;;14.87;nan;101069.72;4974409;28;20479;-91
2023/10/15 03:18:23;;;;;;;;;;;;;;;14.90;nan;101072.72;4974492;28;19961;-89
2023/10/15 03:21:00;;;;;;;;;;;;;;;14.87;nan;101065.13;4971059;28;19922;-92
2023/10/15 03:23:27;;;;;;;;;;;;;;;14.83;nan;101069.44;4969783;28;19934;-92
2023/10/15 03:25:58;;;;;;;;;;;;;;;14.90;nan;101071.88;4972328;28;20363;-89
2023/10/15 03:28:25;;;;;;;;;;;;;;;14.92;nan;101067.03;4973164;28;19926;-91
2023/10/15 03:30:56;;;;;;;;;;;;;;;14.91;nan;101058.16;4974298;28;19937;-90
2023/10/15 03:33:23;;;;;;;;;;;;;;;14.93;nan;101064.06;4971744;28;20305;-88
2023/10/15 03:35:55;;;;;;;;;;;;;;;14.94;nan;101062.19;4968300;28;20017;-91
2023/10/15 03:38:31;;;;;;;;;;;;;;;14.97;nan;101067.84;4972086;28;19921;-89
2023/10/15 03:41:11;;;;;;;;;;;;;;;14.95;nan;101053.00;4972839;28;20028;-90
2023/10/15 03:43:39;;;;;;;;;;;;;;;14.88;nan;101074.03;4979318;28;19984;-91
2023/10/15 03:46:18;;;;;;;;;;;;;;;14.83;nan;101064.06;4971396;28;19918;-91
2023/10/15 03:48:47;;;;;;;;;;;;;;;14.76;nan;101068.91;4972679;28;19926;-90
2023/10/15 03:51:21;;;;;;;;;;;;;;;14.75;nan;101062.72;4971982;28;19918;-94
2023/10/15 03:53:49;;;;;;;;;;;;;;;14.63;nan;101064.84;4977565;28;19926;-87
2023/10/15 03:56:18;;;;;;;;;;;;;;;14.65;nan;101070.78;4971559;28;19917;-94
2023/10/15 03:58:45;;;;;;;;;;;;;;;14.63;nan;101070.22;4976627;28;20316;-90
2023/10/15 04:01:18;;;;;;;;;;;;;;;14.52;nan;101069.38;4975397;28;20498;-90
2023/10/15 04:03:49;;;;;;;;;;;;;;;14.57;nan;101067.81;4975075;28;19922;-89
2023/10/15 04:06:16;;;;;;;;;;;;;;;14.51;nan;101067.78;4975796;28;20978;-91
2023/10/15 04:11:37;;;;;;;;;;;;;;;14.49;nan;101085.28;4977879;28;20012;-90
2023/10/15 04:16:50;;;;;;;;;;;;;;;14.39;nan;101086.06;4978032;28;19976;-92
2023/10/15 04:19:19;;;;;;;;;;;;;;;14.41;nan;101077.72;4976219;28;19928;-89
2023/10/15 04:21:45;;;;;;;;;;;;;;;14.35;nan;101082.25;4975690;28;19929;-88
2023/10/15 04:24:14;;;;;;;;;;;;;;;14.34;nan;101083.31;4971828;28;20301;-89
2023/10/15 04:26:42;;;;;;;;;;;;;;;14.33;nan;101083.59;4975255;28;20161;-91
2023/10/15 04:29:20;;;;;;;;;;;;;;;14.30;nan;101087.63;4974589;28;20251;-94
2023/10/15 04:32:00;;;;;;;;;;;;;;;14.37;nan;101088.22;4988927;28;19926;-91
2023/10/15 04:34:30;;;;;;;;;;;;;;;14.35;nan;101084.94;4975825;28;19932;-90
2023/10/15 04:36:57;;;;;;;;;;;;;;;14.28;nan;101072.81;4974508;28;19961;-90
2023/10/15 04:39:32;;;;;;;;;;;;;;;14.29;nan;101075.22;4976015;28;20094;-95
2023/10/15 04:42:01;;;;;;;;;;;;;;;14.27;nan;101065.78;4974035;28;19922;-91
2023/10/15 04:44:31;;;;;;;;;;;;;;;14.23;nan;101080.88;4975900;28;19928;-91
2023/10/15 04:47:09;;;;;;;;;;;;;;;14.22;nan;101074.69;4975728;28;20133;-93
2023/10/15 04:49:34;;;;;;;;;;;;;;;14.19;nan;101076.03;4978437;28;20032;-89
2023/10/15 04:52:13;;;;;;;;;;;;;;;14.19;nan;101077.91;4974741;28;19953;-89
2023/10/15 04:54:44;;;;;;;;;;;;;;;14.11;nan;101079.22;4973433;28;20405;-91
2023/10/15 04:57:10;;;;;;;;;;;;;;;14.11;nan;101075.72;4973479;28;19930;-90
2023/10/15 04:59:36;;;;;;;;;;;;;;;14.14;nan;101067.91;4973437;28;19933;-90
2023/10/15 05:02:04;;;;;;;;;;;;;;;14.14;nan;101067.91;4974225;28;19984;-89
2023/10/15 05:04:30;;;;;;;;;;;;;;;14.13;nan;101068.97;4974587;28;19930;-94
2023/10/15 05:06:56;;;;;;;;;;;;;;;14.16;nan;101068.44;4974675;28;19925;-93
2023/10/15 05:09:23;;;;;;;;;;;;;;;14.15;nan;101064.13;4978255;28;19918;-92
2023/10/15 05:11:51;;;;;;;;;;;;;;;14.15;nan;101063.31;4976075;28;19925;-93
2023/10/15 05:14:18;;;;;;;;;;;;;;;14.14;nan;101064.41;4968955;28;19927;-89
2023/10/15 05:16:47;;;;;;;;;;;;;;;14.09;nan;101070.59;4973574;28;19925;-90
2023/10/15 05:19:20;;;;;;;;;;;;;;;14.03;nan;101078.91;4974650;28;19960;-91
2023/10/15 05:21:56;;;;;;;;;;;;;;;14.04;nan;101078.66;4974705;28;19928;-90
2023/10/15 05:24:25;;;;;;;;;;;;;;;14.09;nan;101073.28;4969713;28;19926;-91
2023/10/15 05:26:56;;;;;;;;;;;;;;;14.12;nan;101072.75;4972277;28;19930;-91
2023/10/15 05:29:26;;;;;;;;;;;;;;;14.13;nan;101071.66;4974948;28;20429;-90
2023/10/15 05:31:54;;;;;;;;;;;;;;;14.08;nan;101089.72;4976469;28;19925;-89
2023/10/15 05:34:20;;;;;;;;;;;;;;;14.05;nan;101091.06;4976276;28;19922;-89
2023/10/15 05:36:48;;;;;;;;;;;;;;;14.08;nan;101090.53;4973255;28;20325;-92
2023/10/15 05:39:18;;;;;;;;;;;;;;;14.07;nan;101102.38;4972170;28;19981;-93
2023/10/15 05:41:47;;;;;;;;;;;;;;;14.07;nan;101102.38;4973514;28;19933;-91
2023/10/15 05:44:23;;;;;;;;;;;;;;;14.00;nan;101100.97;4975456;28;19918;-90
2023/10/15 05:46:49;;;;;;;;;;;;;;;13.97;nan;101099.63;4974974;28;19922;-90
2023/10/15 05:49:15;;;;;;;;;;;;;;;13.90;nan;101099.84;4971079;28;19926;-90
2023/10/15 05:51:42;;;;;;;;;;;;;;;13.93;nan;101103.91;4977275;28;20084;-88
2023/10/15 05:54:09;;;;;;;;;;;;;;;13.95;nan;101107.16;4971935;28;19926;-91
2023/10/15 05:56:36;;;;;;;;;;;;;;;13.91;nan;101100.66;4968713;28;19933;-90
2023/10/15 05:59:05;;;;;;;;;;;;;;;13.88;nan;101103.88;4974950;28;19919;-90
2023/10/15 06:01:31;;;;;;;;;;;;;;;13.83;nan;101114.66;4974612;28;19925;-89
2023/10/15 06:04:07;;;;;;;;;;;;;;;13.82;nan;101118.38;4969675;28;19925;-89
2023/10/15 06:06:33;;;;;;;;;;;;;;;13.82;nan;101121.06;4979826;28;19922;-91
2023/10/15 06:09:05;;;;;;;;;;;;;;;13.83;nan;101120.03;4974075;28;20378;-92
2023/10/15 06:11:30;;;;;;;;;;;;;;;13.84;nan;101124.34;4980243;28;19929;-90
2023/10/15 06:13:56;;;;;;;;;;;;;;;13.88;nan;101117.34;4980668;28;20131;-89
2023/10/15 06:16:21;;;;;;;;;;;;;;;13.86;nan;101124.88;4977205;28;20012;-91
2023/10/15 06:18:47;;;;;;;;;;;;;;;13.82;nan;101129.16;4973454;28;19925;-89
2023/10/15 06:21:21;;;;;;;;;;;;;;;13.77;nan;101121.06;4982129;28;19989;-91
2023/10/15 06:23:46;;;;;;;;;;;;;;;13.77;nan;101132.63;4971673;28;19934;-88
2023/10/15 06:26:14;;;;;;;;;;;;;;;13.81;nan;101128.34;4980669;28;19922;-89
2023/10/15 06:28:40;;;;;;;;;;;;;;;13.83;nan;101131.63;4982015;28;20389;-91
2023/10/15 06:31:11;;;;;;;;;;;;;;;13.89;nan;101135.13;4975415;28;20004;-90
2023/10/15 06:33:40;;;;;;;;;;;;;;;13.93;nan;101130.84;4973579;28;19934;-89
2023/10/15 06:36:06;;;;;;;;;;;;;;;13.99;nan;101137.88;4971843;28;20374;-87
2023/10/15 06:38:33;;;;;;;;;;;;;;;14.03;nan;101141.69;4968942;28;20031;-90
2023/10/15 06:41:04;;;;;;;;;;;;;;;14.06;nan;101137.66;4973019;28;20485;-88
2023/10/15 06:43:30;;;;;;;;;;;;;;;14.08;nan;101144.41;4975344;28;19973;-92
2023/10/15 06:46:03;;;;;;;;;;;;;;;14.13;nan;101140.91;4970402;28;20492;-89
2023/10/15 06:48:29;;;;;;;;;;;;;;;14.17;nan;101150.09;4970257;28;19921;-89
2023/10/15 06:51:04;;;;;;;;;;;;;;;14.24;nan;101152.56;4971741;28;20006;-92
2023/10/15 06:53:31;;;;;;;;;;;;;;;14.28;nan;101153.66;4970421;28;19922;-89
2023/10/15 06:55:57;;;;;;;;;;;;;;;14.33;nan;101154.47;4967184;28;19930;-89
2023/10/15 06:58:43;;;;;;;;;;;;;;;14.33;nan;101162.56;4970917;28;20407;-90
2023/10/15 07:01:14;;;;;;;;;;;;;;;14.45;nan;101163.22;4971135;28;19928;-92
2023/10/15 07:03:41;;;;;;;;;;;;;;;14.49;nan;101164.28;4970857;28;19921;-90
2023/10/15 07:06:06;;;;;;;;;;;;;;;14.59;nan;101163.53;4974795;28;19980;-91
2023/10/15 07:08:31;;;;;;;;;;;;;;;14.69;nan;101173.53;4954639;28;19922;-89
2023/10/15 07:11:04;;;;;;;;;;;;;;;14.71;nan;101174.88;4969676;28;19926;-89
2023/10/15 07:13:40;;;;;;;;;;;;;;;14.84;nan;101173.56;4978413;28;20053;-92
2023/10/15 07:16:06;;;;;;;;;;;;;;;14.84;nan;101170.88;4968959;28;19922;-88
2023/10/15 07:18:33;;;;;;;;;;;;;;;14.93;nan;101179.28;4970754;28;19925;-92
2023/10/15 07:21:00;;;;;;;;;;;;;;;14.96;nan;101187.66;4972748;28;19961;-92
2023/10/15 07:23:29;;;;;;;;;;;;;;;15.01;nan;101186.84;4971777;28;20045;-93
2023/10/15 07:25:56;;;;;;;;;;;;;;;15.12;nan;101193.88;4968784;28;20029;-90
2023/10/15 07:28:22;;;;;;;;;;;;;;;15.10;nan;101193.34;4972058;28;20425;-89
2023/10/15 07:30:49;;;;;;;;;;;;;;;15.11;nan;101195.78;4970834;28;20021;-88
2023/10/15 07:33:30;;;;;;;;;;;;;;;15.11;nan;101194.97;4973752;28;19948;-92
2023/10/15 07:35:59;;;;;;;;;;;;;;;15.11;nan;101193.09;4972640;28;19954;-95
2023/10/15 07:38:31;;;;;;;;;;;;;;;15.07;nan;101186.56;4975868;28;20200;-96
2023/10/15 07:40:59;;;;;;;;;;;;;;;15.23;nan;101184.72;4969770;28;19932;-95
2023/10/15 07:43:26;;;;;;;;;;;;;;;15.27;nan;101196.63;4974861;28;19929;-90
2023/10/15 07:45:52;;;;;;;;;;;;;;;15.38;nan;101206.34;4978185;28;19918;-90
2023/10/15 07:48:29;;;;;;;;;;;;;;;15.56;nan;101209.59;4972298;28;20466;-91
2023/10/15 07:50:55;;;;;;;;;;;;;;;15.63;nan;101215.56;4972952;28;20308;-91
2023/10/15 07:53:21;;;;;;;;;;;;;;;15.72;nan;101213.94;4973931;28;19941;-91
2023/10/15 07:55:50;;;;;;;;;;;;;;;15.67;nan;101208.53;4973637;28;20298;-89
2023/10/15 07:58:25;;;;;;;;;;;;;;;15.63;nan;101208.28;4974221;28;19957;-94
2023/10/15 08:00:54;;;;;;;;;;;;;;;15.62;nan;101217.47;4974124;28;19945;-93
2023/10/15 08:03:20;;;;;;;;;;;;;;;15.63;nan;101207.47;4976415;28;19928;-91
2023/10/15 08:05:48;;;;;;;;;;;;;;;15.64;nan;101211.78;4980487;28;19925;-91
2023/10/15 08:08:13;;;;;;;;;;;;;;;15.69;nan;101219.88;4978388;28;19926;-92
2023/10/15 08:10:41;;;;;;;;;;;;;;;15.81;nan;101219.63;4976151;28;20048;-93
2023/10/15 08:13:07;;;;;;;;;;;;;;;15.91;nan;101222.31;4991625;28;19930;-92
2023/10/15 08:15:34;;;;;;;;;;;;;;;16.02;nan;101222.03;4978811;28;19917;-86
2023/10/15 08:18:01;;;;;;;;;;;;;;;16.09;nan;101220.94;4974949;28;19961;-91
2023/10/15 08:20:27;;;;;;;;;;;;;;;16.17;nan;101231.19;4981856;28;19918;-89
2023/10/15 08:22:53;;;;;;;;;;;;;;;16.21;nan;101237.66;4978359;28;19922;-87
2023/10/15 08:25:31;;;;;;;;;;;;;;;16.27;nan;101239.28;4982599;28;19946;-94
2023/10/15 08:27:58;;;;;;;;;;;;;;;16.32;nan;101244.66;4975005;28;20036;-87
2023/10/15 08:30:25;;;;;;;;;;;;;;;16.34;nan;101253.34;4975277;28;20056;-89
2023/10/15 08:32:51;;;;;;;;;;;;;;;16.42;nan;101252.75;4974265;28;20005;-92
2023/10/15 08:35:32;;;;;;;;;;;;;;;16.48;nan;101257.06;4978133;28;19914;-88
2023/10/15 08:38:00;;;;;;;;;;;;;;;16.60;nan;101254.06;4975847;28;19929;-87
2023/10/15 08:40:35;;;;;;;;;;;;;;;16.79;nan;101249.69;4975435;28;19918;-89
2023/10/15 08:43:40;;;;;;;;;;;;;;;16.89;nan;101252.34;4973428;28;19962;-84
2023/10/15 08:46:09;;;;;;;;;;;;;;;17.02;nan;101245.50;4979612;28;19922;-86
2023/10/15 08:48:40;;;;;;;;;;;;;;;17.14;nan;101247.88;4971946;28;20069;-87
2023/10/15 08:51:08;;;;;;;;;;;;;;;17.18;nan;101249.75;4971247;28;19977;-87
2023/10/15 08:53:41;;;;;;;;;;;;;;;17.17;nan;101250.03;4972186;28;19921;-89
2023/10/15 08:56:09;;;;;;;;;;;;;;;17.08;nan;101257.94;4974024;28;19925;-86
2023/10/15 08:58:40;;;;;;;;;;;;;;;17.01;nan;101260.13;4975891;28;19957;-85
2023/10/15 09:01:13;;;;;;;;;;;;;;;16.97;nan;101253.66;4972950;28;19965;-89
2023/10/15 09:03:42;;;;;;;;;;;;;;;17.00;nan;101258.50;4974685;28;19924;-86
2023/10/15 09:06:12;;;;;;;;;;;;;;;16.97;nan;101269.91;4978424;28;19928;-88
2023/10/15 09:08:41;;;;;;;;;;;;;;;17.03;nan;101281.50;4970808;28;19929;-86
2023/10/15 09:11:10;;;;;;;;;;;;;;;17.05;nan;101271.22;4978036;28;20379;-88
2023/10/15 09:13:37;;;;;;;;;;;;;;;17.11;nan;101256.56;4973255;28;19984;-86
2023/10/15 09:16:04;;;;;;;;;;;;;;;17.23;nan;101265.16;4972246;28;19926;-87
2023/10/15 09:18:35;;;;;;;;;;;;;;;17.43;nan;101275.09;4972808;28;19918;-91
2023/10/15 09:21:05;;;;;;;;;;;;;;;17.59;nan;101270.34;4972534;28;19926;-88
2023/10/15 09:23:36;;;;;;;;;;;;;;;17.57;nan;101267.91;4974941;28;19921;-86
2023/10/15 09:26:13;;;;;;;;;;;;;;;17.65;nan;101266.53;4973996;28;20000;-87
2023/10/15 09:28:41;;;;;;;;;;;;;;;17.75;nan;101263.75;4976366;28;19922;-90
2023/10/15 09:31:09;;;;;;;;;;;;;;;17.87;nan;101258.78;4973765;28;20540;-92
2023/10/15 09:33:35;;;;;;;;;;;;;;;17.92;nan;101264.16;4971691;28;19969;-85
2023/10/15 09:36:02;;;;;;;;;;;;;;;18.07;nan;101257.78;4972720;28;20958;-84
2023/10/15 09:38:54;;;;;;;;;;;;;;;18.11;nan;101262.34;4975319;28;19969;-87
2023/10/15 09:41:29;;;;;;;;;;;;;;;18.12;nan;101268.56;4969873;28;19933;-86
2023/10/15 09:43:57;;;;;;;;;;;;;;;18.07;nan;101264.00;4973020;28;19951;-86
2023/10/15 09:46:26;;;;;;;;;;;;;;;18.17;nan;101268.56;4973807;28;19921;-85
2023/10/15 09:48:52;;;;;;;;;;;;;;;18.19;nan;101266.34;4963859;28;19929;-86
2023/10/15 09:51:23;;;;;;;;;;;;;;;18.20;nan;101270.69;4973933;28;19922;-90
2023/10/15 09:54:00;;;;;;;;;;;;;;;18.31;nan;101276.78;4976527;28;19930;-88
2023/10/15 09:56:29;;;;;;;;;;;;;;;18.37;nan;101281.91;4977364;28;19925;-87
2023/10/15 09:58:56;;;;;;;;;;;;;;;18.41;nan;101277.50;4980085;28;19918;-85
2023/10/15 10:01:27;;;;;;;;;;;;;;;18.38;nan;101291.66;4971302;28;19925;-86
2023/10/15 10:04:16;;;;;;;;;;;;;;;18.41;nan;101277.50;4968978;28;20246;-93
2023/10/15 10:06:42;;;;;;;;;;;;;;;18.54;nan;101286.06;4971189;28;20317;-90
2023/10/15 10:09:16;;;;;;;;;;;;;;;18.63;nan;101287.88;4972034;28;19933;-91
2023/10/15 10:12:08;;;;;;;;;;;;;;;18.75;nan;101282.06;4970996;28;19925;-91
2023/10/15 10:14:46;;;;;;;;;;;;;;;18.84;nan;101288.44;4966612;28;19922;-89
2023/10/15 10:17:12;;;;;;;;;;;;;;;18.91;nan;101282.69;4974402;28;19925;-86
2023/10/15 10:19:47;;;;;;;;;;;;;;;18.93;nan;101278.56;4975746;28;19971;-85
2023/10/15 10:22:40;;;;;;;;;;;;;;;19.06;nan;101287.94;4971683;28;19937;-86
2023/10/15 10:25:15;;;;;;;;;;;;;;;19.22;nan;101280.38;4973782;28;19961;-88
2023/10/15 10:27:45;;;;;;;;;;;;;;;19.28;nan;101288.16;4975492;28;19917;-85
2023/10/15 10:30:30;;;;;;;;;;;;;;;19.31;nan;101286.75;4972409;28;20186;-87
2023/10/15 10:32:57;;;;;;;;;;;;;;;19.39;nan;101290.72;4969943;28;19930;-87
2023/10/15 10:35:28;;;;;;;;;;;;;;;19.48;nan;101295.22;4967404;28;19932;-90
2023/10/15 10:38:16;;;;;;;;;;;;;;;19.61;nan;101288.25;4967293;28;20029;-89
2023/10/15 10:40:56;;;;;;;;;;;;;;;19.58;nan;101289.66;4965271;28;19933;-86
2023/10/15 10:43:24;;;;;;;;;;;;;;;19.51;nan;101278.31;4978062;28;20388;-88
2023/10/15 10:46:09;;;;;;;;;;;;;;;19.61;nan;101289.06;4971913;28;19925;-89
2023/10/15 10:48:39;;;;;;;;;;;;;;;19.71;nan;101277.22;4971361;28;19945;-86
2023/10/15 10:51:21;;;;;;;;;;;;;;;19.73;nan;101285.06;4978196;28;19929;-87
2023/10/15 10:54:16;;;;;;;;;;;;;;;19.69;nan;101278.63;4969499;28;20057;-86
2023/10/15 10:56:45;;;;;;;;;;;;;;;19.75;nan;101286.41;4970387;28;19922;-88
2023/10/15 10:59:13;;;;;;;;;;;;;;;19.70;nan;101270.16;4973619;28;20017;-86
2023/10/15 11:01:43;;;;;;;;;;;;;;;19.73;nan;101274.19;4973296;28;20013;-89
2023/10/15 11:04:17;;;;;;;;;;;;;;;19.68;nan;101277.81;4977458;28;19941;-87
2023/10/15 11:06:52;;;;;;;;;;;;;;;19.59;nan;101277.69;4972710;28;20365;-87
2023/10/15 11:09:37;;;;;;;;;;;;;;;19.49;nan;101274.28;4975280;28;19926;-91
2023/10/15 11:12:12;;;;;;;;;;;;;;;19.41;nan;101277.66;4978432;28;19925;-89
2023/10/15 11:14:38;;;;;;;;;;;;;;;19.43;nan;101289.84;4969981;28;20069;-88
2023/10/15 11:17:05;;;;;;;;;;;;;;;19.45;nan;101262.38;4971038;28;20020;-89
2023/10/15 11:19:30;;;;;;;;;;;;;;;19.53;nan;101275.28;4971664;28;19928;-91
2023/10/15 11:21:57;;;;;;;;;;;;;;;19.55;nan;101271.22;4973127;28;19921;-89
2023/10/15 11:24:23;;;;;;;;;;;;;;;19.63;nan;101261.59;4979233;28;19968;-89
2023/10/15 11:26:50;;;;;;;;;;;;;;;19.75;nan;101261.09;4968138;28;20371;-88
2023/10/15 11:29:18;;;;;;;;;;;;;;;19.81;nan;101259.94;4964717;28;19958;-89
2023/10/15 11:31:44;;;;;;;;;;;;;;;19.92;nan;101262.16;4971059;28;19925;-86
2023/10/15 11:34:17;;;;;;;;;;;;;;;20.04;nan;101261.72;4970175;28;19926;-89
2023/10/15 11:36:44;;;;;;;;;;;;;;;20.19;nan;101264.16;4973441;28;19921;-89
2023/10/15 11:39:47;;;;;;;;;;;;;;;20.19;nan;101256.00;4973045;28;19949;-89
2023/10/15 11:42:19;;;;;;;;;;;;;;;20.19;nan;101250.56;4972022;28;19930;-90
2023/10/15 11:44:55;;;;;;;;;;;;;;;20.29;nan;101260.47;4971168;28;19926;-88
2023/10/15 11:47:32;;;;;;;;;;;;;;;20.46;nan;101259.88;4968272;28;20409;-91
2023/10/15 11:50:07;;;;;;;;;;;;;;;20.49;nan;101259.28;4968959;28;19926;-90
2023/10/15 11:52:49;;;;;;;;;;;;;;;20.42;nan;101264.31;4970489;28;19973;-91
2023/10/15 11:55:26;;;;;;;;;;;;;;;20.35;nan;101253.00;4968509;28;19926;-90
2023/10/15 11:57:56;;;;;;;;;;;;;;;20.16;nan;101259.31;4969354;28;19922;-89
2023/10/15 12:00:34;;;;;;;;;;;;;;;20.16;nan;101253.88;4970280;28;19929;-88
2023/10/15 12:03:05;;;;;;;;;;;;;;;20.06;nan;101255.97;4966842;28;19937;-90
2023/10/15 12:05:32;;;;;;;;;;;;;;;20.02;nan;101255.75;4967301;28;20189;-92
2023/10/15 12:08:03;;;;;;;;;;;;;;;19.94;nan;101252.94;4965194;28;19980;-92
2023/10/15 12:10:28;;;;;;;;;;;;;;;19.90;nan;101249.97;4968116;28;19958;-86
2023/10/15 12:12:56;;;;;;;;;;;;;;;19.88;nan;101246.75;4968925;28;19972;-88
2023/10/15 12:15:34;;;;;;;;;;;;;;;20.00;nan;101240.84;4966014;28;20027;-86
2023/10/15 12:18:10;;;;;;;;;;;;;;;20.20;nan;101246.72;4969466;28;20310;-88
2023/10/15 12:20:36;;;;;;;;;;;;;;;20.38;nan;101241.50;4970320;28;20059;-91
2023/10/15 12:23:27;;;;;;;;;;;;;;;20.53;nan;101241.25;4970114;28;19956;-89
2023/10/15 12:26:07;;;;;;;;;;;;;;;20.60;nan;101244.34;4969232;28;19953;-92
2023/10/15 12:28:44;;;;;;;;;;;;;;;20.71;nan;101239.53;4972864;28;20428;-92
2023/10/15 12:31:09;;;;;;;;;;;;;;;20.72;nan;101252.81;4971006;28;19922;-89
2023/10/15 12:33:38;;;;;;;;;;;;;;;20.66;nan;101251.34;4976274;28;19925;-89
2023/10/15 12:36:09;;;;;;;;;;;;;;;20.65;nan;101257.06;4968838;28;19973;-90
2023/10/15 12:38:35;;;;;;;;;;;;;;;20.65;nan;101249.72;4973620;28;19925;-90
2023/10/15 12:41:00;;;;;;;;;;;;;;;20.52;nan;101253.25;4969098;28;19922;-90
2023/10/15 12:43:29;;;;;;;;;;;;;;;20.44;nan;101262.09;4973423;28;19922;-89
2023/10/15 12:45:57;;;;;;;;;;;;;;;20.43;nan;101263.19;4971041;28;19928;-89
2023/10/15 12:48:27;;;;;;;;;;;;;;;20.48;nan;101257.69;4970730;28;19949;-93
2023/10/15 12:50:54;;;;;;;;;;;;;;;20.50;nan;101279.97;4969770;28;19924;-90
2023/10/15 12:53:37;;;;;;;;;;;;;;;20.49;nan;101264.75;4972091;28;19922;-89
2023/10/15 12:56:06;;;;;;;;;;;;;;;20.53;nan;101260.28;4972496;28;19926;-90
2023/10/15 12:58:32;;;;;;;;;;;;;;;20.55;nan;101260.78;4974777;28;20423;-90
2023/10/15 13:00:59;;;;;;;;;;;;;;;20.54;nan;101264.63;4968971;28;19925;-87
2023/10/15 13:03:25;;;;;;;;;;;;;;;20.37;nan;101269.84;4974820;28;19921;-89
2023/10/15 13:05:52;;;;;;;;;;;;;;;20.22;nan;101274.44;4968648;28;19936;-89
2023/10/15 13:08:18;;;;;;;;;;;;;;;20.09;nan;101275.22;4971153;28;19922;-87
2023/10/15 13:10:45;;;;;;;;;;;;;;;19.97;nan;101266.75;4972036;28;19925;-87
2023/10/15 13:13:23;;;;;;;;;;;;;;;19.98;nan;101281.16;4967794;28;19930;-88
2023/10/15 13:15:52;;;;;;;;;;;;;;;20.08;nan;101280.94;4972223;28;20318;-91
2023/10/15 13:18:23;;;;;;;;;;;;;;;20.29;nan;101273.22;4969775;28;19918;-92
2023/10/15 13:20:49;;;;;;;;;;;;;;;20.40;nan;101271.94;4969720;28;19926;-88
2023/10/15 13:23:15;;;;;;;;;;;;;;;20.47;nan;101275.13;4970771;28;21307;-89
2023/10/15 13:25:40;;;;;;;;;;;;;;;20.50;nan;101272.59;4968666;28;19933;-87
2023/10/15 13:28:08;;;;;;;;;;;;;;;20.43;nan;101268.66;4968531;28;20775;-91